createdAt,value
2018-02-15T00:00:48.364Z,13.40
2018-02-15T00:01:48.384Z,13.00
2018-02-15T00:02:48.402Z,13.90
2018-02-15T00:03:48.417Z,13.90
2018-02-15T00:04:48.435Z,13.30
2018-02-15T00:05:48.450Z,13.30
2018-02-15T00:06:48.461Z,14.40
2018-02-15T00:07:48.483Z,15.10
2018-02-15T00:08:48.500Z,15.30
2018-02-15T00:09:48.533Z,13.40
2018-02-15T00:10:48.527Z,14.20
2018-02-15T00:11:48.552Z,14.70
2018-02-15T00:12:48.566Z,14.10
2018-02-15T00:13:48.576Z,14.10
2018-02-15T00:14:48.592Z,14.80
2018-02-15T00:15:48.616Z,13.60
2018-02-15T00:16:48.633Z,13.60
2018-02-15T00:17:48.643Z,13.90
2018-02-15T00:18:48.659Z,15.10
2018-02-15T00:19:48.677Z,15.50
2018-02-15T00:20:48.693Z,15.60
2018-02-15T00:21:48.708Z,17.40
2018-02-15T00:22:48.732Z,14.90
2018-02-15T00:23:48.743Z,14.60
2018-02-15T00:24:48.757Z,15.10
2018-02-15T00:25:48.783Z,13.90
2018-02-15T00:26:48.792Z,14.40
2018-02-15T00:27:48.813Z,15.40
2018-02-15T00:28:48.825Z,14.90
2018-02-15T00:29:48.846Z,15.90
2018-02-15T00:30:48.857Z,13.00
2018-02-15T00:31:48.880Z,15.60
2018-02-15T00:32:48.891Z,14.60
2018-02-15T00:33:48.907Z,14.00
2018-02-15T00:34:48.930Z,14.70
2018-02-15T00:35:48.941Z,15.20
2018-02-15T00:36:48.958Z,14.30
2018-02-15T00:37:48.979Z,14.80
2018-02-15T00:38:48.996Z,13.70
2018-02-15T00:39:49.013Z,15.80
2018-02-15T00:40:49.030Z,14.30
2018-02-15T00:41:49.040Z,13.70
2018-02-15T00:42:49.063Z,14.70
2018-02-15T00:43:49.078Z,15.40
2018-02-15T00:44:49.096Z,14.70
2018-02-15T00:45:49.106Z,13.80
2018-02-15T00:46:49.129Z,15.20
2018-02-15T00:47:49.141Z,16.40
2018-02-15T00:48:49.162Z,14.40
2018-02-15T00:49:49.178Z,16.30
2018-02-15T00:50:49.189Z,15.10
2018-02-15T00:51:49.213Z,15.00
2018-02-15T00:52:49.229Z,16.40
2018-02-15T00:53:49.241Z,14.10
2018-02-15T00:54:49.256Z,14.60
2018-02-15T00:55:49.273Z,14.90
2018-02-15T00:56:49.299Z,14.10
2018-02-15T00:57:49.307Z,16.10
2018-02-15T00:58:49.323Z,14.70
2018-02-15T00:59:49.347Z,13.40
2018-02-15T01:00:49.388Z,16.40
2018-02-15T01:01:49.419Z,15.50
2018-02-15T01:02:49.423Z,15.60
2018-02-15T01:03:49.425Z,15.50
2018-02-15T01:04:49.448Z,15.00
2018-02-15T01:05:49.440Z,16.00
2018-02-15T01:06:49.471Z,14.10
2018-02-15T01:07:49.484Z,15.00
2018-02-15T01:08:49.571Z,15.40
2018-02-15T01:09:49.530Z,14.40
2018-02-15T01:10:49.548Z,16.60
2018-02-15T01:11:49.553Z,15.00
2018-02-15T01:12:49.571Z,14.90
2018-02-15T01:13:49.591Z,14.10
2018-02-15T01:14:49.608Z,13.70
2018-02-15T01:15:49.625Z,14.50
2018-02-15T01:16:49.641Z,14.50
2018-02-15T01:17:49.640Z,13.90
2018-02-15T01:18:49.729Z,12.40
2018-02-15T01:19:49.673Z,13.60
2018-02-15T01:20:49.720Z,13.90
2018-02-15T01:21:49.713Z,13.30
2018-02-15T01:22:49.759Z,13.10
2018-02-15T01:23:49.742Z,14.30
2018-02-15T01:24:49.795Z,13.30
2018-02-15T01:25:49.793Z,14.70
2018-02-15T01:26:49.809Z,13.30
2018-02-15T01:27:49.829Z,15.00
2018-02-15T01:28:50.093Z,13.00
2018-02-15T01:29:49.869Z,15.10
2018-02-15T01:30:49.872Z,13.70
2018-02-15T01:31:49.889Z,13.90
2018-02-15T01:32:49.930Z,14.80
2018-02-15T01:33:49.958Z,14.10
2018-02-15T01:34:49.939Z,13.30
2018-02-15T01:35:49.952Z,13.00
2018-02-15T01:36:49.992Z,13.00
2018-02-15T01:37:49.990Z,13.40
2018-02-15T01:38:50.052Z,13.40
2018-02-15T01:39:50.033Z,13.90
2018-02-15T01:40:50.050Z,13.60
2018-02-15T01:41:50.084Z,12.80
2018-02-15T01:42:50.099Z,13.60
2018-02-15T01:43:50.084Z,13.60
2018-02-15T01:44:50.097Z,13.10
2018-02-15T01:45:50.112Z,12.00
2018-02-15T01:46:50.130Z,13.90
2018-02-15T01:47:50.147Z,14.80
2018-02-15T01:48:50.160Z,14.00
2018-02-15T01:49:50.176Z,13.70
2018-02-15T01:50:50.193Z,13.20
2018-02-15T01:51:50.251Z,13.60
2018-02-15T01:52:50.227Z,14.00
2018-02-15T01:53:50.245Z,13.90
2018-02-15T01:54:50.259Z,13.10
2018-02-15T01:55:50.277Z,12.70
2018-02-15T01:56:50.297Z,11.60
2018-02-15T01:57:50.315Z,12.50
2018-02-15T01:58:50.331Z,12.30
2018-02-15T01:59:50.348Z,13.00
2018-02-15T02:00:50.364Z,13.00
2018-02-15T02:01:50.383Z,15.10
2018-02-15T02:02:50.400Z,13.00
2018-02-15T02:03:50.414Z,13.70
2018-02-15T02:04:50.428Z,14.10
2018-02-15T02:05:50.443Z,13.60
2018-02-15T02:06:50.461Z,11.50
2018-02-15T02:07:50.479Z,11.50
2018-02-15T02:08:50.495Z,12.50
2018-02-15T02:09:50.512Z,12.80
2018-02-15T02:10:50.529Z,11.70
2018-02-15T02:11:50.546Z,11.60
2018-02-15T02:12:50.568Z,12.30
2018-02-15T02:13:50.583Z,11.50
2018-02-15T02:14:50.600Z,13.30
2018-02-15T02:15:50.616Z,14.30
2018-02-15T02:16:50.636Z,13.30
2018-02-15T02:17:50.650Z,12.10
2018-02-15T02:18:50.669Z,11.90
2018-02-15T02:19:50.684Z,12.30
2018-02-15T02:20:50.698Z,13.10
2018-02-15T02:21:50.715Z,11.90
2018-02-15T02:22:50.745Z,12.10
2018-02-15T02:23:50.749Z,12.50
2018-02-15T02:24:50.766Z,11.10
2018-02-15T02:49:22.088Z,12.50
2018-02-15T02:50:18.684Z,11.20
2018-02-15T02:51:18.693Z,12.40
2018-02-15T02:52:18.717Z,11.00
2018-02-15T02:53:18.728Z,12.00
2018-02-15T02:54:18.751Z,10.60
2018-02-15T02:55:18.771Z,10.90
2018-02-15T02:56:18.792Z,12.10
2018-02-15T02:57:18.799Z,11.20
2018-02-15T02:58:18.820Z,11.60
2018-02-15T02:59:18.829Z,12.90
2018-02-15T03:00:18.853Z,13.20
2018-02-15T03:01:18.863Z,11.20
2018-02-15T03:02:18.885Z,12.70
2018-02-15T03:03:18.897Z,14.00
2018-02-15T03:28:03.004Z,12.60
2018-02-15T03:29:03.027Z,10.80
2018-02-15T03:30:03.039Z,11.10
2018-02-15T03:31:03.062Z,11.00
2018-02-15T03:32:03.078Z,11.40
2018-02-15T03:33:03.095Z,11.30
2018-02-15T03:34:03.106Z,10.90
2018-02-15T03:35:03.133Z,11.60
2018-02-15T03:36:03.140Z,11.10
2018-02-15T03:37:03.166Z,12.10
2018-02-15T03:38:03.174Z,11.80
2018-02-15T03:39:03.197Z,11.40
2018-02-15T03:40:03.209Z,11.30
2018-02-15T03:41:03.231Z,11.30
2018-02-15T03:42:03.242Z,11.30
2018-02-15T03:43:03.265Z,10.90
2018-02-15T03:44:03.277Z,11.50
2018-02-15T03:45:03.293Z,12.20
2018-02-15T03:46:03.315Z,11.70
2018-02-15T03:47:03.333Z,10.90
2018-02-15T03:48:03.345Z,11.70
2018-02-15T03:49:03.361Z,11.20
2018-02-15T03:50:03.384Z,12.90
2018-02-15T03:51:03.402Z,11.10
2018-02-15T03:52:03.417Z,9.90
2018-02-15T03:53:03.432Z,11.50
2018-02-15T03:54:03.452Z,11.90
2018-02-15T03:55:03.471Z,11.50
2018-02-15T03:56:03.481Z,12.00
2018-02-15T03:57:03.497Z,10.90
2018-02-15T03:58:03.521Z,12.50
2018-02-15T03:59:03.538Z,11.20
2018-02-15T04:00:03.550Z,11.90
2018-02-15T04:01:03.566Z,10.00
2018-02-15T04:02:03.589Z,9.90
2018-02-15T04:03:03.607Z,17.20
2018-02-15T04:04:03.619Z,11.10
2018-02-15T04:05:03.634Z,10.90
2018-02-15T04:06:03.658Z,11.00
2018-02-15T04:07:03.676Z,11.90
2018-02-15T04:08:03.688Z,12.10
2018-02-15T04:09:03.702Z,10.60
2018-02-15T04:10:03.728Z,10.40
2018-02-15T04:11:03.744Z,10.20
2018-02-15T04:12:03.755Z,10.50
2018-02-15T04:13:03.772Z,10.60
2018-02-15T04:14:03.795Z,11.30
2018-02-15T04:15:03.807Z,10.40
2018-02-15T04:16:03.831Z,10.70
2018-02-15T04:17:03.840Z,11.20
2018-02-15T04:18:03.862Z,10.60
2018-02-15T04:19:03.877Z,10.90
2018-02-15T04:20:03.899Z,11.30
2018-02-15T04:21:03.908Z,12.40
2018-02-15T04:22:03.937Z,11.40
2018-02-15T04:23:03.960Z,12.00
2018-02-15T04:24:03.966Z,11.60
2018-02-15T04:25:03.977Z,10.00
2018-02-15T04:26:04.000Z,10.80
2018-02-15T04:27:04.013Z,10.00
2018-02-15T04:28:04.036Z,10.30
2018-02-15T04:29:04.048Z,11.10
2018-02-15T04:30:04.072Z,10.70
2018-02-15T04:31:04.087Z,9.40
2018-02-15T04:32:04.097Z,11.40
2018-02-15T04:33:04.120Z,10.90
2018-02-15T04:34:04.134Z,12.00
2018-02-15T04:35:04.155Z,11.50
2018-02-15T04:36:04.168Z,9.60
2018-02-15T04:37:04.190Z,10.30
2018-02-15T04:38:04.200Z,10.00
2018-02-15T04:39:04.218Z,11.50
2018-02-15T04:40:04.241Z,9.90
2018-02-15T04:41:04.253Z,12.00
2018-02-15T04:42:04.277Z,10.30
2018-02-15T04:43:04.286Z,11.20
2018-02-15T04:44:04.310Z,12.60
2018-02-15T04:45:04.321Z,11.70
2018-02-15T04:46:04.343Z,11.30
2018-02-15T04:47:04.362Z,12.10
2018-02-15T04:48:04.373Z,12.60
2018-02-15T04:49:04.389Z,11.70
2018-02-15T04:50:04.412Z,14.40
2018-02-15T04:51:04.430Z,9.60
2018-02-15T04:52:04.443Z,11.80
2018-02-15T04:53:04.457Z,11.80
2018-02-15T04:54:04.479Z,8.50
2018-02-15T04:55:04.497Z,14.00
2018-02-15T04:56:04.509Z,9.70
2018-02-15T04:57:04.530Z,11.90
2018-02-15T04:58:04.543Z,11.50
2018-02-15T04:59:04.566Z,13.60
2018-02-15T05:00:04.578Z,11.90
2018-02-15T05:01:04.598Z,11.90
2018-02-15T05:02:04.610Z,13.20
2018-02-15T05:03:04.633Z,11.40
2018-02-15T05:04:04.643Z,12.90
2018-02-15T05:05:04.660Z,12.40
2018-02-15T05:06:04.683Z,12.60
2018-02-15T05:07:04.699Z,13.40
2018-02-15T05:08:04.711Z,13.50
2018-02-15T05:09:04.728Z,13.70
2018-02-15T05:10:04.750Z,13.30
2018-02-15T05:11:04.761Z,13.30
2018-02-15T05:12:04.786Z,14.00
2018-02-15T05:13:04.799Z,13.70
2018-02-15T05:14:04.810Z,14.90
2018-02-15T05:15:04.827Z,12.90
2018-02-15T05:16:04.852Z,14.70
2018-02-15T05:17:04.866Z,14.80
2018-02-15T05:18:04.878Z,16.00
2018-02-15T05:19:04.894Z,17.00
2018-02-15T05:20:04.916Z,17.40
2018-02-15T05:21:04.930Z,17.80
2018-02-15T05:22:04.947Z,19.60
2018-02-15T05:23:04.960Z,17.50
2018-02-15T05:24:04.981Z,18.50
2018-02-15T05:25:04.992Z,19.40
2018-02-15T05:26:05.014Z,18.80
2018-02-15T05:27:05.031Z,19.80
2018-02-15T05:28:05.041Z,20.10
2018-02-15T05:29:05.056Z,20.90
2018-02-15T05:30:05.079Z,21.00
2018-02-15T05:31:05.096Z,19.30
2018-02-15T05:32:05.106Z,19.90
2018-02-15T05:33:05.123Z,19.90
2018-02-15T05:34:05.143Z,20.20
2018-02-15T05:35:05.156Z,22.90
2018-02-15T05:36:05.171Z,21.10
2018-02-15T05:37:05.192Z,21.20
2018-02-15T05:38:05.202Z,21.80
2018-02-15T05:39:05.225Z,21.70
2018-02-15T05:40:05.236Z,22.80
2018-02-15T05:41:05.252Z,22.90
2018-02-15T05:42:05.269Z,22.20
2018-02-15T05:43:05.285Z,24.20
2018-02-15T05:44:05.307Z,22.80
2018-02-15T05:45:05.316Z,24.40
2018-02-15T05:46:05.338Z,23.70
2018-02-15T05:47:05.348Z,19.50
2018-02-15T05:48:05.371Z,23.10
2018-02-15T05:49:05.380Z,23.80
2018-02-15T05:50:05.402Z,23.80
2018-02-15T05:51:05.421Z,21.90
2018-02-15T05:52:05.437Z,22.00
2018-02-15T05:53:05.450Z,21.20
2018-02-15T05:54:05.462Z,22.60
2018-02-15T05:55:05.477Z,21.50
2018-02-15T05:56:05.500Z,23.20
2018-02-15T05:57:05.509Z,24.70
2018-02-15T05:58:05.525Z,23.30
2018-02-15T05:59:05.548Z,20.50
2018-02-15T06:00:05.560Z,21.00
2018-02-15T06:01:05.574Z,23.50
2018-02-15T06:02:05.596Z,21.80
2018-02-15T06:03:05.612Z,22.90
2018-02-15T06:04:05.622Z,23.10
2018-02-15T06:05:05.638Z,21.60
2018-02-15T06:06:05.669Z,21.50
2018-02-15T06:07:05.687Z,22.80
2018-02-15T06:08:05.703Z,21.90
2018-02-15T06:09:05.718Z,21.90
2018-02-15T06:10:05.728Z,23.00
2018-02-15T06:11:05.745Z,21.10
2018-02-15T06:12:05.767Z,20.80
2018-02-15T06:13:05.813Z,23.90
2018-02-15T06:14:05.800Z,23.10
2018-02-15T06:15:05.818Z,19.90
2018-02-15T06:16:05.825Z,21.70
2018-02-15T06:17:05.842Z,21.90
2018-02-15T06:18:05.863Z,21.20
2018-02-15T06:19:05.880Z,21.50
2018-02-15T06:20:05.890Z,22.00
2018-02-15T06:21:05.906Z,21.30
2018-02-15T06:22:05.928Z,23.40
2018-02-15T06:23:05.944Z,22.90
2018-02-15T06:24:05.954Z,23.20
2018-02-15T06:25:05.974Z,23.60
2018-02-15T06:26:05.992Z,23.70
2018-02-15T06:27:06.012Z,22.90
2018-02-15T06:28:06.025Z,22.20
2018-02-15T06:29:06.040Z,22.10
2018-02-15T06:30:06.051Z,23.20
2018-02-15T06:31:06.074Z,21.50
2018-02-15T06:32:06.084Z,20.30
2018-02-15T06:33:06.105Z,20.90
2018-02-15T06:34:06.115Z,22.20
2018-02-15T06:35:06.136Z,19.80
2018-02-15T06:36:06.149Z,19.80
2018-02-15T06:37:06.174Z,22.00
2018-02-15T06:38:06.179Z,23.00
2018-02-15T06:39:06.196Z,21.30
2018-02-15T06:40:06.212Z,21.50
2018-02-15T06:41:06.234Z,22.80
2018-02-15T06:42:06.244Z,23.10
2018-02-15T06:43:06.265Z,24.60
2018-02-15T06:44:06.277Z,24.30
2018-02-15T06:45:06.291Z,24.90
2018-02-15T06:46:06.309Z,22.60
2018-02-15T06:47:06.330Z,22.50
2018-02-15T06:48:06.342Z,21.20
2018-02-15T06:49:06.363Z,25.00
2018-02-15T06:50:06.375Z,24.30
2018-02-15T06:51:06.393Z,24.60
2018-02-15T06:52:06.406Z,23.40
2018-02-15T06:53:06.427Z,22.60
2018-02-15T06:54:06.437Z,25.90
2018-02-15T06:55:06.462Z,23.90
2018-02-15T06:56:06.476Z,24.30
2018-02-15T06:57:06.491Z,24.80
2018-02-15T06:58:06.502Z,23.90
2018-02-15T06:59:06.518Z,22.80
2018-02-15T07:00:06.539Z,24.10
2018-02-15T07:01:06.550Z,24.10
2018-02-15T07:02:06.566Z,23.60
2018-02-15T07:03:06.582Z,24.40
2018-02-15T07:04:06.604Z,22.80
2018-02-15T07:05:06.614Z,27.00
2018-02-15T07:06:06.636Z,24.90
2018-02-15T07:07:06.648Z,26.50
2018-02-15T07:08:06.669Z,24.70
2018-02-15T07:09:06.679Z,29.20
2018-02-15T07:10:06.701Z,26.80
2018-02-15T07:11:06.829Z,25.50
2018-02-15T07:12:06.757Z,24.60
2018-02-15T07:13:06.762Z,27.20
2018-02-15T07:14:06.759Z,25.50
2018-02-15T07:15:06.775Z,25.90
2018-02-15T07:16:06.797Z,28.50
2018-02-15T07:17:06.807Z,24.00
2018-02-15T07:18:06.824Z,26.80
2018-02-15T07:19:06.839Z,23.80
2018-02-15T07:20:06.862Z,25.40
2018-02-15T07:21:06.877Z,25.60
2018-02-15T07:22:06.889Z,23.60
2018-02-15T07:23:06.904Z,23.70
2018-02-15T07:24:06.926Z,27.00
2018-02-15T07:25:06.945Z,27.40
2018-02-15T07:26:06.952Z,24.10
2018-02-15T07:27:06.974Z,25.40
2018-02-15T07:28:06.991Z,27.50
2018-02-15T07:29:07.001Z,27.10
2018-02-15T07:30:07.024Z,26.80
2018-02-15T07:31:07.034Z,25.00
2018-02-15T07:32:07.057Z,28.40
2018-02-15T07:33:07.072Z,26.10
2018-02-15T07:34:07.088Z,27.80
2018-02-15T07:35:07.105Z,27.20
2018-02-15T07:36:07.117Z,27.90
2018-02-15T07:37:07.132Z,28.60
2018-02-15T07:38:07.155Z,28.50
2018-02-15T07:39:07.175Z,29.10
2018-02-15T07:40:07.181Z,26.60
2018-02-15T07:41:07.196Z,27.60
2018-02-15T07:42:07.219Z,26.60
2018-02-15T07:43:07.236Z,26.80
2018-02-15T07:44:07.252Z,27.00
2018-02-15T07:45:07.261Z,27.50
2018-02-15T07:46:07.284Z,31.40
2018-02-15T07:47:07.301Z,29.00
2018-02-15T07:48:07.312Z,27.30
2018-02-15T07:49:07.328Z,25.20
2018-02-15T07:50:07.350Z,27.30
2018-02-15T07:51:07.361Z,27.90
2018-02-15T07:52:07.384Z,25.70
2018-02-15T07:53:07.399Z,28.80
2018-02-15T07:54:07.410Z,29.00
2018-02-15T07:55:07.426Z,29.20
2018-02-15T07:56:07.449Z,29.00
2018-02-15T07:57:07.462Z,29.30
2018-02-15T07:58:07.475Z,28.60
2018-02-15T07:59:07.491Z,26.00
2018-02-15T08:00:07.513Z,28.90
2018-02-15T08:01:07.523Z,29.20
2018-02-15T08:02:07.546Z,28.80
2018-02-15T08:03:07.557Z,29.70
2018-02-15T08:04:07.579Z,28.40
2018-02-15T08:05:07.590Z,29.70
2018-02-15T08:06:07.610Z,29.20
2018-02-15T08:07:07.627Z,26.70
2018-02-15T08:08:07.639Z,28.40
2018-02-15T08:09:07.655Z,27.60
2018-02-15T08:10:07.677Z,26.20
2018-02-15T08:11:07.693Z,26.70
2018-02-15T08:12:07.704Z,29.60
2018-02-15T08:13:07.720Z,27.00
2018-02-15T08:14:07.746Z,28.40
2018-02-15T08:15:07.762Z,25.90
2018-02-15T08:16:07.771Z,26.60
2018-02-15T08:17:07.790Z,27.10
2018-02-15T08:18:07.802Z,27.40
2018-02-15T08:19:07.828Z,24.20
2018-02-15T08:20:07.834Z,27.00
2018-02-15T08:21:07.856Z,28.10
2018-02-15T08:22:07.867Z,27.10
2018-02-15T08:23:07.884Z,27.10
2018-02-15T08:24:07.905Z,25.90
2018-02-15T08:25:07.917Z,27.20
2018-02-15T08:26:07.938Z,26.60
2018-02-15T08:27:07.951Z,26.10
2018-02-15T08:28:07.972Z,27.60
2018-02-15T08:29:07.982Z,28.20
2018-02-15T08:30:08.005Z,27.00
2018-02-15T08:31:08.021Z,27.90
2018-02-15T08:32:08.034Z,27.00
2018-02-15T08:33:08.047Z,25.30
2018-02-15T08:34:08.070Z,26.90
2018-02-15T08:35:08.086Z,26.50
2018-02-15T08:36:08.098Z,26.20
2018-02-15T08:37:08.113Z,25.90
2018-02-15T08:38:08.137Z,26.60
2018-02-15T08:39:08.153Z,24.80
2018-02-15T08:40:08.164Z,25.40
2018-02-15T08:41:08.185Z,25.30
2018-02-15T08:42:08.198Z,25.20
2018-02-15T08:43:08.221Z,27.00
2018-02-15T08:44:08.230Z,26.30
2018-02-15T08:45:08.251Z,25.90
2018-02-15T08:46:08.336Z,26.10
2018-02-15T08:47:08.284Z,24.90
2018-02-15T08:48:08.296Z,24.70
2018-02-15T08:49:08.318Z,26.50
2018-02-15T08:50:08.335Z,27.70
2018-02-15T08:51:08.355Z,27.70
2018-02-15T08:52:08.364Z,24.70
2018-02-15T08:53:08.380Z,27.80
2018-02-15T08:54:08.401Z,24.80
2018-02-15T08:55:08.472Z,26.50
2018-02-15T08:56:08.427Z,22.80
2018-02-15T08:57:08.444Z,26.70
2018-02-15T08:58:08.518Z,26.80
2018-02-15T08:59:08.516Z,25.90
2018-02-15T09:00:08.498Z,24.90
2018-02-15T09:01:08.595Z,25.00
2018-02-15T09:02:08.551Z,24.70
2018-02-15T09:03:08.544Z,28.90
2018-02-15T09:04:08.565Z,26.90
2018-02-15T09:05:08.576Z,23.70
2018-02-15T09:06:08.649Z,26.20
2018-02-15T09:07:08.611Z,26.20
2018-02-15T09:08:08.632Z,24.60
2018-02-15T09:09:08.665Z,25.90
2018-02-15T09:10:08.697Z,23.20
2018-02-15T09:11:08.731Z,26.60
2018-02-15T09:12:08.726Z,25.00
2018-02-15T09:13:08.710Z,24.20
2018-02-15T09:14:08.734Z,23.00
2018-02-15T09:15:08.759Z,26.10
2018-02-15T09:16:08.831Z,25.10
2018-02-15T09:17:08.777Z,25.60
2018-02-15T09:18:08.825Z,23.30
2018-02-15T09:19:08.825Z,24.50
2018-02-15T09:20:08.861Z,25.10
2018-02-15T09:21:08.849Z,23.10
2018-02-15T09:22:08.860Z,25.10
2018-02-15T09:23:08.885Z,25.30
2018-02-15T09:24:08.894Z,23.90
2018-02-15T09:25:08.915Z,22.70
2018-02-15T09:26:08.927Z,23.90
2018-02-15T09:27:08.949Z,23.50
2018-02-15T09:28:08.960Z,23.30
2018-02-15T09:29:08.983Z,25.80
2018-02-15T09:30:08.995Z,26.50
2018-02-15T09:31:09.017Z,22.70
2018-02-15T09:32:09.028Z,23.20
2018-02-15T09:33:09.051Z,22.20
2018-02-15T09:34:09.061Z,22.20
2018-02-15T09:35:09.084Z,24.70
2018-02-15T09:36:09.094Z,23.50
2018-02-15T09:37:09.111Z,22.40
2018-02-15T09:38:09.133Z,21.30
2018-02-15T09:39:09.153Z,22.60
2018-02-15T09:40:09.163Z,23.30
2018-02-15T09:41:09.177Z,25.10
2018-02-15T09:42:09.204Z,23.50
2018-02-15T09:43:09.218Z,23.20
2018-02-15T09:44:09.230Z,22.60
2018-02-15T09:45:09.246Z,25.80
2018-02-15T09:46:09.269Z,23.30
2018-02-15T09:47:09.286Z,21.80
2018-02-15T09:48:09.297Z,22.30
2018-02-15T09:49:09.313Z,23.10
2018-02-15T09:50:09.336Z,21.60
2018-02-15T09:51:09.353Z,22.80
2018-02-15T09:52:09.370Z,21.10
2018-02-15T09:53:09.387Z,21.70
2018-02-15T09:54:09.400Z,21.90
2018-02-15T09:55:09.416Z,22.20
2018-02-15T09:56:09.437Z,24.30
2018-02-15T09:57:09.451Z,20.40
2018-02-15T09:58:09.469Z,23.20
2018-02-15T09:59:09.483Z,21.10
2018-02-15T10:00:09.507Z,21.70
2018-02-15T10:01:09.526Z,22.00
2018-02-15T10:02:09.537Z,21.20
2018-02-15T10:03:09.551Z,23.00
2018-02-15T10:04:09.575Z,21.30
2018-02-15T10:05:09.591Z,22.70
2018-02-15T10:06:09.602Z,23.30
2018-02-15T10:07:09.626Z,24.10
2018-02-15T10:08:09.642Z,22.80
2018-02-15T10:09:09.653Z,24.40
2018-02-15T10:10:09.676Z,23.60
2018-02-15T10:11:09.690Z,22.60
2018-02-15T10:12:09.711Z,21.60
2018-02-15T10:13:09.728Z,18.60
2018-02-15T10:14:09.745Z,19.60
2018-02-15T10:15:09.762Z,19.60
2018-02-15T10:16:09.773Z,17.70
2018-02-15T10:17:09.791Z,21.60
2018-02-15T10:18:09.813Z,17.10
2018-02-15T10:19:09.831Z,21.40
2018-02-15T10:20:09.843Z,21.70
2018-02-15T10:21:09.860Z,17.40
2018-02-15T10:22:09.882Z,19.10
2018-02-15T10:23:09.894Z,18.30
2018-02-15T10:24:09.912Z,18.80
2018-02-15T10:25:09.936Z,17.50
2018-02-15T10:26:09.948Z,14.30
2018-02-15T10:27:09.981Z,16.30
2018-02-15T10:28:09.981Z,18.30
2018-02-15T10:29:09.998Z,17.50
2018-02-15T10:30:10.016Z,18.70
2018-02-15T10:31:10.042Z,17.10
2018-02-15T10:32:10.050Z,19.80
2018-02-15T10:33:10.073Z,19.00
2018-02-15T10:34:10.095Z,16.00
2018-02-15T10:35:10.107Z,17.40
2018-02-15T10:36:10.120Z,15.80
2018-02-15T10:37:10.143Z,16.90
2018-02-15T10:38:10.154Z,17.20
2018-02-15T10:39:10.177Z,16.60
2018-02-15T10:40:10.196Z,15.60
2018-02-15T10:41:10.212Z,15.70
2018-02-15T10:42:10.225Z,16.40
2018-02-15T10:43:10.242Z,17.30
2018-02-15T10:44:10.265Z,14.90
2018-02-15T10:45:10.276Z,17.30
2018-02-15T10:46:10.314Z,14.10
2018-02-15T10:47:10.312Z,16.70
2018-02-15T10:48:10.341Z,14.00
2018-02-15T10:49:10.346Z,15.80
2018-02-15T10:50:10.369Z,17.00
2018-02-15T10:51:10.472Z,14.30
2018-02-15T10:52:10.428Z,17.10
2018-02-15T10:53:10.419Z,16.00
2018-02-15T10:54:10.441Z,15.60
2018-02-15T10:55:10.459Z,13.60
2018-02-15T10:56:10.476Z,14.10
2018-02-15T10:57:10.493Z,13.40
2018-02-15T10:58:10.505Z,13.80
2018-02-15T10:59:10.527Z,14.80
2018-02-15T11:00:10.580Z,14.40
2018-02-15T11:01:10.558Z,13.10
2018-02-15T11:02:10.581Z,15.20
2018-02-15T11:03:10.597Z,13.00
2018-02-15T11:04:10.611Z,15.10
2018-02-15T11:05:10.629Z,13.80
2018-02-15T11:06:10.650Z,15.60
2018-02-15T11:07:10.669Z,14.30
2018-02-15T11:08:10.686Z,13.60
2018-02-15T11:09:10.700Z,13.20
2018-02-15T11:10:10.723Z,11.50
2018-02-15T11:11:10.740Z,13.70
2018-02-15T11:12:10.758Z,13.90
2018-02-15T11:13:10.768Z,13.20
2018-02-15T11:14:10.791Z,13.00
2018-02-15T11:15:10.804Z,13.70
2018-02-15T11:16:10.828Z,14.20
2018-02-15T11:17:10.845Z,14.10
2018-02-15T11:18:10.862Z,15.90
2018-02-15T11:19:10.881Z,14.20
2018-02-15T11:20:10.893Z,14.70
2018-02-15T11:21:10.915Z,13.60
2018-02-15T11:22:10.928Z,15.10
2018-02-15T11:23:10.950Z,13.70
2018-02-15T11:24:10.966Z,17.70
2018-02-15T11:25:10.987Z,12.70
2018-02-15T11:26:10.998Z,15.30
2018-02-15T11:27:11.051Z,15.80
2018-02-15T11:28:11.034Z,14.80
2018-02-15T11:29:11.050Z,16.50
2018-02-15T11:30:11.068Z,14.10
2018-02-15T11:31:11.092Z,16.60
2018-02-15T11:32:11.104Z,15.50
2018-02-15T11:33:11.124Z,14.80
2018-02-15T11:34:11.144Z,15.90
2018-02-15T11:35:11.156Z,16.50
2018-02-15T11:36:11.180Z,16.30
2018-02-15T11:37:11.194Z,16.00
2018-02-15T11:38:11.214Z,17.20
2018-02-15T11:39:11.227Z,20.10
2018-02-15T11:40:11.250Z,16.90
2018-02-15T11:41:11.261Z,17.20
2018-02-15T11:42:11.285Z,17.00
2018-02-15T11:43:11.302Z,16.70
2018-02-15T11:44:11.315Z,17.40
2018-02-15T11:45:11.332Z,19.10
2018-02-15T11:46:11.349Z,18.70
2018-02-15T11:47:11.373Z,20.30
2018-02-15T11:48:11.390Z,19.30
2018-02-15T11:49:11.403Z,19.30
2018-02-15T11:50:11.425Z,19.00
2018-02-15T11:51:11.443Z,18.50
2018-02-15T11:52:11.455Z,17.70
2018-02-15T11:53:11.472Z,18.20
2018-02-15T11:54:11.495Z,18.80
2018-02-15T11:55:11.536Z,19.40
2018-02-15T11:56:11.528Z,19.80
2018-02-15T11:57:11.543Z,19.20
2018-02-15T11:58:11.566Z,20.00
2018-02-15T11:59:11.583Z,19.40
2018-02-15T12:00:11.596Z,21.60
2018-02-15T12:01:11.619Z,21.60
2018-02-15T12:02:11.632Z,22.60
2018-02-15T12:03:11.653Z,21.70
2018-02-15T12:04:11.667Z,18.50
2018-02-15T12:05:11.696Z,21.60
2018-02-15T12:06:11.701Z,21.70
2018-02-15T12:07:11.728Z,22.40
2018-02-15T12:08:11.737Z,21.50
2018-02-15T12:09:11.758Z,23.40
2018-02-15T12:10:11.774Z,23.00
2018-02-15T12:11:11.795Z,23.50
2018-02-15T12:12:11.811Z,23.40
2018-02-15T12:13:11.829Z,22.40
2018-02-15T12:14:11.842Z,22.30
2018-02-15T12:15:11.865Z,22.50
2018-02-15T12:16:11.878Z,21.20
2018-02-15T12:17:11.894Z,23.30
2018-02-15T12:18:11.918Z,23.80
2018-02-15T12:19:11.936Z,22.60
2018-02-15T12:20:11.949Z,27.20
2018-02-15T12:21:12.018Z,22.20
2018-02-15T12:22:11.990Z,25.50
2018-02-15T12:23:12.023Z,25.20
2018-02-15T12:24:12.025Z,23.00
2018-02-15T12:25:12.039Z,24.30
2018-02-15T12:26:12.059Z,24.60
2018-02-15T12:27:12.077Z,25.10
2018-02-15T12:28:12.090Z,24.50
2018-02-15T12:29:12.108Z,23.50
2018-02-15T12:30:12.134Z,25.40
2018-02-15T12:31:12.149Z,23.50
2018-02-15T12:32:12.161Z,25.90
2018-02-15T12:33:12.178Z,24.60
2018-02-15T12:34:12.202Z,24.20
2018-02-15T12:35:12.219Z,21.90
2018-02-15T12:36:12.231Z,25.20
2018-02-15T12:37:12.248Z,26.10
2018-02-15T12:38:12.271Z,22.50
2018-02-15T12:39:12.289Z,22.40
2018-02-15T12:40:12.305Z,22.80
2018-02-15T12:41:12.319Z,24.60
2018-02-15T12:42:12.343Z,21.90
2018-02-15T12:43:12.361Z,19.80
2018-02-15T12:44:12.375Z,24.30
2018-02-15T12:45:12.390Z,20.50
2018-02-15T12:46:12.413Z,19.10
2018-02-15T12:47:12.426Z,19.90
2018-02-15T12:48:12.485Z,19.30
2018-02-15T12:49:12.464Z,21.70
2018-02-15T12:50:12.488Z,21.60
2018-02-15T12:51:12.496Z,17.30
2018-02-15T12:52:12.520Z,20.70
2018-02-15T12:53:12.531Z,21.30
2018-02-15T12:54:12.555Z,18.70
2018-02-15T12:55:12.568Z,18.90
2018-02-15T12:56:12.592Z,19.60
2018-02-15T12:57:12.603Z,22.90
2018-02-15T12:58:12.626Z,19.40
2018-02-15T12:59:12.638Z,18.70
2018-02-15T13:00:12.662Z,19.80
2018-02-15T13:01:12.673Z,18.40
2018-02-15T13:02:12.698Z,19.00
2018-02-15T13:03:12.719Z,20.80
2018-02-15T13:04:12.743Z,19.10
2018-02-15T13:05:12.747Z,18.10
2018-02-15T13:06:12.773Z,17.90
2018-02-15T13:07:12.792Z,16.20
2018-02-15T13:08:12.816Z,18.50
2018-02-15T13:09:12.815Z,18.20
2018-02-15T13:10:12.841Z,18.40
2018-02-15T13:11:12.858Z,18.40
2018-02-15T13:12:12.870Z,19.10
2018-02-15T13:13:12.893Z,17.90
2018-02-15T13:14:12.906Z,18.00
2018-02-15T13:15:12.931Z,18.30
2018-02-15T13:16:12.992Z,19.20
2018-02-15T13:17:12.966Z,18.20
2018-02-15T13:18:12.994Z,17.70
2018-02-15T13:19:13.003Z,17.60
2018-02-15T13:20:13.015Z,17.20
2018-02-15T13:21:13.037Z,16.70
2018-02-15T13:22:13.052Z,16.00
2018-02-15T13:23:13.072Z,16.70
2018-02-15T13:24:13.086Z,16.30
2018-02-15T13:25:13.108Z,17.10
2018-02-15T13:26:13.121Z,16.90
2018-02-15T13:27:13.145Z,17.50
2018-02-15T13:28:13.158Z,17.40
2018-02-15T13:29:13.176Z,19.40
2018-02-15T13:30:13.203Z,18.00
2018-02-15T13:31:13.220Z,17.00
2018-02-15T13:32:13.233Z,16.50
2018-02-15T13:33:13.250Z,15.60
2018-02-15T13:34:13.271Z,15.60
2018-02-15T13:35:13.307Z,16.10
2018-02-15T13:36:13.308Z,16.60
2018-02-15T13:37:13.325Z,15.20
2018-02-15T13:38:13.337Z,14.40
2018-02-15T13:39:13.355Z,15.00
2018-02-15T13:40:13.380Z,15.60